Mar de Espanha, Brazil
Current Conditions -  °F | °C
As of 2:00 PM on Wednesday 26 Nov 2014 (Local Time) from SBBQ Reporting Station
Broken Clouds Broken Clouds  
Wind Chill: 77°   Ceiling: 2300
Heat Index: 79°   Visibility: 6mi
Dew Point: 64°   Wind: 10mph
Humidity: 65%   Direction: 350°N
Pressure: 30"   Gusts: NA
Location:  21.87°S, 43.01°W
Report Text: SBBQ 261600Z 35009KT 9999 BKN023 25/18 Q1016
Loading
Personal Weather Stations






























Interactive Weather Map New forecast layout! Learn more

10-Day Weather Forecast

Advertisements
Track Severe Weather on mobile